Adamsville, Utah
Current Conditions -  °F | °C
As of 2:52 AM on Monday 22 Dec 2014 (Local Time) from KMLF Reporting Station
Scattered Clouds Scattered Clouds  
Wind Chill: 30°   Ceiling: Unl
Heat Index: 34°   Visibility: 10mi
Dew Point: 30°   Wind: 5mph
Humidity: 85%   Direction: 10°N
Pressure: 30.06"   Gusts: NA
Location:  38.2672°N, 112.728°W
Report Text: KMLF 220952Z AUTO 01004KT 10SM SCT055 01/M01 A3006 RMK AO2 SLP164 T00111011 TSNO
Loading
Personal Weather Stations






























Interactive Weather Map New forecast layout! Learn more

10-Day Weather Forecast

Advertisements
Track Severe Weather on mobile